Armuchee, Georgia
Current Conditions -  °F | °C
As of 12:53 AM on Monday 24 Nov 2014 (Local Time) from KRMG Reporting Station
Overcast Overcast  
Wind Chill: 60°   Ceiling: 3300
Heat Index: 60°   Visibility: 10mi
Dew Point: 56°   Wind: 12mph
Humidity: 86%   Direction: 180°S
Pressure: 29.67"   Gusts: NA
Location:  34.39°N, 85.18°W
Report Text: KRMG 240553Z AUTO 18010KT 10SM FEW027 OVC033 16/13 A2967 RMK AO2 SLP043 T01560133 10161 20122 50004 $
Loading
Personal Weather Stations






























Interactive Weather Map New forecast layout! Learn more

10-Day Weather Forecast

Advertisements
Track Severe Weather on mobile